Time;durP1;ratioP1;P1;durP2;ratioP2;P2;SDS_P1;SDS_P2;PMS_P1;PMS_P2;Temp;Humidity;BMP_temperature;BMP_pressure;BME280_temperature;BME280_humidity;BME280_pressure;Samples;Min_cycle;Max_cycle;Signal;HPM_P1;HPM_P2
2022/11/25 00:00:02;;;;;;;14.35;4.45;;;6.60;99.90;;;;;;5094387;28;20047;-78
2022/11/25 00:02:28;;;;;;;18.48;3.80;;;6.60;99.90;;;;;;5094352;28;20050;-78
2022/11/25 00:04:53;;;;;;;19.92;4.93;;;6.60;99.90;;;;;;5094071;28;20090;-79
2022/11/25 00:07:19;;;;;;;14.45;4.22;;;6.60;99.90;;;;;;5094280;28;20051;-81
2022/11/25 00:09:45;;;;;;;19.63;4.95;;;6.60;99.90;;;;;;5094441;28;20040;-79
2022/11/25 00:12:10;;;;;;;12.55;4.10;;;6.60;99.90;;;;;;5094601;28;20048;-81
2022/11/25 00:14:36;;;;;;;16.55;4.68;;;6.60;99.90;;;;;;5094142;28;20456;-78
2022/11/25 00:17:01;;;;;;;9.02;4.30;;;6.60;99.90;;;;;;5094317;28;20048;-81
2022/11/25 00:19:27;;;;;;;19.58;4.28;;;6.50;99.90;;;;;;5075402;28;20040;-81
2022/11/25 00:21:52;;;;;;;15.20;4.38;;;6.50;99.90;;;;;;5093969;28;20047;-79
2022/11/25 00:24:18;;;;;;;13.13;4.28;;;6.50;99.90;;;;;;5093501;28;20157;-80
2022/11/25 00:26:44;;;;;;;12.20;4.25;;;6.60;99.90;;;;;;5094070;28;20054;-81
2022/11/25 00:29:11;;;;;;;18.63;3.78;;;6.50;99.90;;;;;;5094166;28;20036;-82
2022/11/25 00:31:38;;;;;;;13.15;4.30;;;6.60;99.90;;;;;;5093922;28;20119;-81
2022/11/25 00:34:06;;;;;;;11.52;4.18;;;6.60;99.90;;;;;;5093854;28;20136;-80
2022/11/25 00:36:34;;;;;;;14.82;3.97;;;6.60;99.90;;;;;;5093854;28;20059;-80
2022/11/25 00:39:03;;;;;;;15.93;4.03;;;6.70;99.90;;;;;;5093511;28;20054;-81
2022/11/25 00:44:34;;;;;;;11.15;3.67;;;6.70;99.90;;;;;;5093791;28;20097;-80
2022/11/25 00:47:01;;;;;;;15.00;4.20;;;6.70;99.90;;;;;;5093775;28;20044;-81
2022/11/25 00:49:27;;;;;;;12.32;4.20;;;6.80;99.90;;;;;;5093772;28;20044;-82
2022/11/25 00:51:53;;;;;;;18.33;4.07;;;6.80;99.90;;;;;;5093542;28;20040;-80
2022/11/25 00:54:19;;;;;;;12.97;4.00;;;6.80;99.90;;;;;;5092787;28;20044;-81
2022/11/25 00:56:44;;;;;;;11.98;3.75;;;6.80;99.90;;;;;;5093347;28;20052;-83
2022/11/25 00:59:10;;;;;;;10.40;3.53;;;6.80;99.90;;;;;;5092403;28;20046;-81
2022/11/25 01:01:36;;;;;;;10.10;3.38;;;6.80;99.90;;;;;;5093335;28;20541;-81
2022/11/25 01:04:02;;;;;;;13.50;3.60;;;6.80;99.90;;;;;;5093380;28;20097;-80
2022/11/25 01:06:28;;;;;;;19.75;3.90;;;6.80;99.90;;;;;;5093335;28;20044;-82
2022/11/25 01:08:54;;;;;;;17.58;4.13;;;6.60;99.90;;;;;;5093511;28;20047;-80
2022/11/25 01:11:21;;;;;;;13.02;4.13;;;6.80;99.90;;;;;;5093549;28;20036;-81
2022/11/25 01:13:48;;;;;;;10.10;3.58;;;6.80;99.90;;;;;;5093657;28;20040;-82
2022/11/25 01:16:17;;;;;;;12.43;3.70;;;6.80;99.90;;;;;;5093499;28;20044;-79
2022/11/25 01:18:43;;;;;;;14.00;3.85;;;6.80;99.90;;;;;;5093479;28;20052;-80
2022/11/25 01:21:15;;;;;;;13.43;4.22;;;6.90;99.90;;;;;;5093577;28;20462;-81
2022/11/25 01:23:41;;;;;;;12.98;4.00;;;6.80;99.90;;;;;;5093455;28;20131;-82
2022/11/25 01:26:10;;;;;;;12.45;3.55;;;6.90;99.90;;;;;;5093563;28;20071;-81
2022/11/25 01:28:36;;;;;;;12.02;3.65;;;6.80;99.90;;;;;;5093268;28;20040;-80
2022/11/25 01:31:04;;;;;;;10.70;3.45;;;6.70;99.90;;;;;;5095640;28;20502;-81
2022/11/25 01:33:33;;;;;;;14.18;3.97;;;6.70;99.90;;;;;;5097553;28;20057;-81
2022/11/25 01:36:04;;;;;;;17.05;4.20;;;6.70;99.90;;;;;;5096844;28;20495;-80
2022/11/25 01:38:30;;;;;;;11.40;3.58;;;6.80;99.90;;;;;;5097188;28;20054;-83
2022/11/25 01:40:56;;;;;;;14.15;3.83;;;6.70;99.90;;;;;;5096368;28;20152;-80
2022/11/25 01:43:22;;;;;;;13.52;3.95;;;6.80;99.90;;;;;;5095671;28;20499;-82
2022/11/25 01:45:47;;;;;;;14.45;3.83;;;6.80;99.90;;;;;;5097008;28;20044;-81
2022/11/25 01:48:36;;;;;;;12.02;4.07;;;6.80;99.90;;;;;;5096068;28;20040;-82
2022/11/25 01:51:02;;;;;;;15.35;4.10;;;6.80;99.90;;;;;;5084058;28;20060;-81
2022/11/25 01:53:27;;;;;;;17.95;3.90;;;6.90;99.90;;;;;;5096788;28;20054;-81
2022/11/25 01:55:59;;;;;;;11.60;3.67;;;6.80;99.90;;;;;;5096653;28;20040;-82
2022/11/25 01:58:30;;;;;;;9.18;3.13;;;6.90;99.90;;;;;;5095984;28;20040;-82
2022/11/25 02:00:57;;;;;;;13.02;3.92;;;6.90;99.90;;;;;;5096681;28;20040;-81
2022/11/25 02:03:28;;;;;;;8.70;3.53;;;6.90;99.90;;;;;;5096615;28;20054;-81
2022/11/25 02:06:01;;;;;;;12.55;3.70;;;6.90;99.90;;;;;;5096721;28;20083;-80
2022/11/25 02:08:28;;;;;;;12.73;3.83;;;6.90;99.90;;;;;;5096379;28;20484;-80
2022/11/25 02:10:54;;;;;;;14.02;4.35;;;6.90;99.90;;;;;;5095591;28;20082;-79
2022/11/25 02:13:22;;;;;;;10.10;3.60;;;6.90;99.90;;;;;;5096346;28;20055;-81
2022/11/25 02:15:48;;;;;;;13.60;4.45;;;6.90;99.90;;;;;;5096299;28;20089;-81
2022/11/25 02:18:14;;;;;;;16.33;4.00;;;6.90;99.90;;;;;;5096328;28;20075;-82
2022/11/25 02:20:40;;;;;;;12.23;3.92;;;6.90;99.90;;;;;;5096189;28;20270;-81
2022/11/25 02:23:38;;;;;;;18.00;4.78;;;6.90;99.90;;;;;;5094935;28;20035;-81
2022/11/25 02:26:03;;;;;;;20.15;4.57;;;6.80;99.90;;;;;;5096147;28;20064;-80
2022/11/25 02:28:31;;;;;;;17.60;4.63;;;6.90;99.90;;;;;;5094786;28;20153;-81
2022/11/25 02:30:57;;;;;;;16.77;4.72;;;6.90;99.90;;;;;;5095999;28;20040;-82
2022/11/25 02:33:23;;;;;;;15.43;4.97;;;7.30;99.90;;;;;;5095944;28;20047;-83
2022/11/25 02:35:54;;;;;;;12.18;4.55;;;6.80;99.90;;;;;;5095931;28;20472;-82
2022/11/25 02:38:27;;;;;;;16.30;4.68;;;6.80;99.90;;;;;;5095928;28;20051;-81
2022/11/25 02:41:07;;;;;;;14.27;4.45;;;6.80;99.90;;;;;;5095932;28;20075;-81
2022/11/25 02:43:33;;;;;;;15.95;5.10;;;6.80;99.90;;;;;;5095260;28;20480;-80
2022/11/25 02:46:01;;;;;;;18.52;5.28;;;6.80;99.90;;;;;;5095649;28;20047;-79
2022/11/25 02:48:31;;;;;;;12.82;4.60;;;6.80;99.90;;;;;;5095753;28;20050;-78
2022/11/25 02:50:57;;;;;;;15.18;4.65;;;6.80;99.90;;;;;;5095571;28;20044;-79
2022/11/25 02:53:23;;;;;;;14.00;4.63;;;6.80;99.90;;;;;;5095630;28;20550;-81
2022/11/25 02:55:48;;;;;;;16.20;4.47;;;6.80;99.90;;;;;;5094627;28;20054;-79
2022/11/25 02:58:15;;;;;;;23.15;5.03;;;6.80;99.90;;;;;;5095467;28;20130;-81
2022/11/25 03:00:41;;;;;;;11.88;4.18;;;6.80;99.90;;;;;;5095396;28;20035;-81
2022/11/25 03:03:07;;;;;;;16.65;5.10;;;6.80;99.90;;;;;;5095339;28;20048;-81
2022/11/25 03:05:33;;;;;;;19.75;5.50;;;6.80;99.90;;;;;;5095938;28;20051;-81
2022/11/25 03:07:59;;;;;;;20.08;4.82;;;6.80;99.90;;;;;;5095283;28;20484;-80
2022/11/25 03:10:24;;;;;;;23.30;5.05;;;6.80;99.90;;;;;;5095220;28;20058;-81
2022/11/25 03:12:50;;;;;;;17.38;4.43;;;6.80;99.90;;;;;;5095233;28;20079;-82
2022/11/25 03:15:16;;;;;;;18.38;5.10;;;6.80;99.90;;;;;;5095103;28;20079;-81
2022/11/25 03:17:42;;;;;;;16.30;4.80;;;6.80;99.90;;;;;;5095065;28;20102;-82
2022/11/25 03:20:09;;;;;;;21.25;5.43;;;6.90;99.90;;;;;;5094346;28;20052;-80
2022/11/25 03:22:35;;;;;;;20.13;5.13;;;6.90;99.90;;;;;;5094217;28;20086;-80
2022/11/25 03:25:00;;;;;;;9.70;4.63;;;6.80;99.90;;;;;;5094636;28;20052;-82
2022/11/25 03:27:26;;;;;;;22.77;4.85;;;6.90;99.90;;;;;;5095002;28;20040;-84
2022/11/25 03:29:52;;;;;;;20.65;5.13;;;6.90;99.90;;;;;;5094766;28;20480;-82
2022/11/25 03:32:17;;;;;;;21.05;4.80;;;6.90;99.90;;;;;;5094739;28;20052;-79
2022/11/25 03:34:43;;;;;;;24.67;5.22;;;6.90;99.90;;;;;;5094748;28;20044;-80
2022/11/25 03:37:09;;;;;;;13.85;4.80;;;6.90;99.90;;;;;;5094625;28;20044;-80
2022/11/25 03:39:34;;;;;;;21.00;4.80;;;6.90;99.90;;;;;;5094625;28;20051;-79
2022/11/25 03:42:00;;;;;;;15.57;4.97;;;6.90;99.90;;;;;;5094717;28;20396;-81
2022/11/25 03:44:25;;;;;;;17.90;5.40;;;6.90;99.90;;;;;;5093478;28;20558;-81
2022/11/25 03:46:51;;;;;;;16.92;5.05;;;6.90;99.90;;;;;;5094247;28;20079;-82
2022/11/25 03:49:17;;;;;;;15.32;4.45;;;6.90;99.90;;;;;;5094595;28;20040;-80
2022/11/25 03:51:43;;;;;;;17.20;4.37;;;7.10;99.90;;;;;;5094292;28;20541;-82
2022/11/25 03:54:08;;;;;;;22.20;5.03;;;6.90;99.90;;;;;;5093500;28;20047;-79
2022/11/25 03:56:34;;;;;;;25.98;4.70;;;6.90;99.90;;;;;;5094430;28;20048;-79
2022/11/25 03:59:00;;;;;;;18.58;5.03;;;6.80;99.90;;;;;;5094368;28;20391;-81
2022/11/25 04:01:25;;;;;;;12.57;4.85;;;7.00;99.90;;;;;;5076461;28;20051;-81
2022/11/25 04:03:51;;;;;;;21.58;5.53;;;6.90;99.90;;;;;;5094302;28;20121;-81
2022/11/25 04:06:18;;;;;;;14.02;4.47;;;6.90;99.90;;;;;;5094277;28;20044;-79
2022/11/25 04:08:45;;;;;;;18.13;5.57;;;6.90;99.90;;;;;;5094028;28;20407;-81
2022/11/25 04:11:10;;;;;;;17.60;5.13;;;6.90;99.90;;;;;;5094159;28;20044;-82
2022/11/25 04:13:36;;;;;;;19.77;5.03;;;6.90;99.90;;;;;;5094079;28;20074;-81
2022/11/25 04:16:02;;;;;;;16.58;4.82;;;6.90;99.90;;;;;;5093957;28;20066;-81
2022/11/25 04:18:28;;;;;;;16.92;4.75;;;6.90;99.90;;;;;;5094141;28;20044;-79
2022/11/25 04:20:54;;;;;;;20.70;4.75;;;6.90;99.90;;;;;;5093686;28;20052;-80
2022/11/25 04:23:19;;;;;;;16.60;5.40;;;7.20;99.90;;;;;;5093977;28;20090;-81
2022/11/25 04:25:47;;;;;;;21.08;5.03;;;6.90;99.90;;;;;;5094224;28;20056;-80
2022/11/25 04:28:13;;;;;;;18.95;5.20;;;6.90;99.90;;;;;;5093941;28;20447;-81
2022/11/25 04:30:39;;;;;;;13.98;4.63;;;6.90;99.90;;;;;;5093622;28;20040;-79
2022/11/25 04:33:04;;;;;;;19.75;5.22;;;6.90;99.90;;;;;;5092768;28;20506;-80
2022/11/25 04:35:30;;;;;;;18.45;5.57;;;6.90;99.90;;;;;;5093888;28;20115;-81
2022/11/25 04:37:56;;;;;;;23.05;5.55;;;6.90;99.90;;;;;;5092716;28;20125;-82
2022/11/25 04:40:21;;;;;;;15.38;4.85;;;6.90;99.90;;;;;;5093739;28;20044;-80
2022/11/25 04:42:47;;;;;;;19.63;5.45;;;6.90;99.90;;;;;;5093751;28;20051;-82
2022/11/25 04:45:15;;;;;;;21.73;4.60;;;7.00;99.90;;;;;;5093690;28;20048;-80
2022/11/25 04:47:41;;;;;;;19.77;5.65;;;7.00;99.90;;;;;;5094192;28;20040;-80
2022/11/25 04:50:13;;;;;;;19.48;5.47;;;7.00;99.90;;;;;;5093669;28;20096;-81
2022/11/25 04:52:38;;;;;;;19.65;4.80;;;7.00;99.90;;;;;;5093657;28;20044;-81
2022/11/25 04:55:05;;;;;;;25.13;5.57;;;7.10;99.90;;;;;;5093609;28;20051;-79
2022/11/25 04:57:30;;;;;;;14.40;4.87;;;7.00;99.90;;;;;;5093643;28;20039;-83
2022/11/25 04:59:56;;;;;;;10.15;5.15;;;7.10;99.90;;;;;;5093563;28;20089;-82
2022/11/25 05:02:24;;;;;;;22.02;5.45;;;7.10;99.90;;;;;;5092397;28;20040;-81
2022/11/25 05:04:52;;;;;;;17.00;5.13;;;7.10;99.90;;;;;;5094161;28;20456;-81
2022/11/25 05:07:20;;;;;;;23.80;5.43;;;7.10;99.90;;;;;;5096766;28;20395;-82
2022/11/25 05:09:45;;;;;;;16.23;5.63;;;7.10;99.90;;;;;;5096439;28;20051;-81
2022/11/25 05:12:15;;;;;;;18.92;6.10;;;7.10;99.90;;;;;;5097578;28;20048;-80
2022/11/25 05:14:40;;;;;;;18.67;5.20;;;7.20;99.90;;;;;;5097519;28;20044;-81
2022/11/25 05:17:07;;;;;;;19.85;5.68;;;7.10;99.90;;;;;;5097469;28;20496;-81
2022/11/25 05:19:34;;;;;;;17.02;5.60;;;7.20;99.90;;;;;;5097456;28;20048;-80
2022/11/25 05:22:00;;;;;;;25.27;5.93;;;7.20;99.90;;;;;;5097491;28;20052;-80
2022/11/25 05:24:26;;;;;;;16.10;5.72;;;7.20;99.90;;;;;;5097150;28;20145;-81
2022/11/25 05:26:51;;;;;;;14.65;5.28;;;7.20;99.90;;;;;;5097253;28;20381;-81
2022/11/25 05:29:17;;;;;;;17.65;5.35;;;7.20;99.90;;;;;;5096110;28;20094;-81
2022/11/25 05:31:43;;;;;;;18.63;5.78;;;7.20;99.90;;;;;;5097143;28;20040;-84
2022/11/25 05:34:08;;;;;;;19.00;5.47;;;7.20;99.90;;;;;;5096219;28;20160;-80
2022/11/25 05:36:34;;;;;;;20.38;5.35;;;7.20;99.90;;;;;;5095651;28;20479;-82
2022/11/25 05:39:00;;;;;;;19.38;6.18;;;7.20;99.90;;;;;;5097141;28;20097;-79
2022/11/25 05:41:25;;;;;;;15.68;5.60;;;7.20;99.90;;;;;;5097063;28;20039;-82
2022/11/25 05:43:51;;;;;;;23.23;5.82;;;7.20;99.90;;;;;;5096881;28;20144;-78
2022/11/25 05:46:18;;;;;;;20.20;6.18;;;7.20;99.90;;;;;;5096995;28;20041;-78
2022/11/25 05:48:43;;;;;;;;;;;7.20;99.90;;;;;;5097351;28;20082;-78
2022/11/25 05:51:09;;;;;;;20.65;5.68;;;7.30;99.90;;;;;;5096541;28;20384;-78
2022/11/25 05:53:35;;;;;;;20.67;6.15;;;8.00;99.90;;;;;;5096874;28;20127;-77
2022/11/25 05:56:04;;;;;;;13.10;6.30;;;7.30;99.90;;;;;;5096737;28;20079;-78
2022/11/25 05:58:31;;;;;;;20.77;6.97;;;7.30;99.90;;;;;;5095565;28;20044;-77
2022/11/25 06:00:57;;;;;;;25.70;6.63;;;7.30;99.90;;;;;;5096668;28;20048;-77
2022/11/25 06:03:27;;;;;;;21.13;7.00;;;7.30;99.90;;;;;;5096599;28;20040;-80
2022/11/25 06:05:57;;;;;;;14.85;6.50;;;7.30;99.90;;;;;;5095416;28;20083;-77
2022/11/25 06:08:24;;;;;;;20.58;7.20;;;7.60;99.90;;;;;;5096597;28;20070;-78
2022/11/25 06:10:49;;;;;;;17.25;6.68;;;7.40;99.90;;;;;;5096519;28;20392;-80
2022/11/25 06:13:15;;;;;;;18.98;7.20;;;7.50;99.90;;;;;;5096863;28;20048;-80
2022/11/25 06:15:42;;;;;;;19.65;7.65;;;7.50;99.90;;;;;;5096456;28;20044;-79
2022/11/25 06:18:09;;;;;;;19.40;7.85;;;7.50;99.90;;;;;;5095286;28;20079;-80
2022/11/25 06:20:35;;;;;;;;;;;7.50;99.90;;;;;;5096708;28;20036;-78
2022/11/25 06:23:01;;;;;;;26.33;8.75;;;7.60;99.90;;;;;;5096205;28;19920;-83
2022/11/25 06:25:26;;;;;;;22.52;9.18;;;7.60;99.90;;;;;;5095800;28;20091;-79
2022/11/25 06:27:53;;;;;;;25.63;8.57;;;7.60;99.90;;;;;;5096147;28;20044;-79
2022/11/25 06:30:19;;;;;;;18.50;8.00;;;7.60;99.90;;;;;;5096031;28;20055;-78
2022/11/25 06:32:45;;;;;;;23.00;8.63;;;7.60;99.90;;;;;;5096011;28;20075;-79
2022/11/25 06:35:11;;;;;;;16.88;8.05;;;7.90;99.90;;;;;;5095836;28;20125;-79
2022/11/25 06:37:36;;;;;;;23.95;8.18;;;7.60;99.90;;;;;;5095847;28;20048;-79
2022/11/25 06:40:03;;;;;;;20.58;8.38;;;7.60;99.90;;;;;;5095781;28;20052;-78
2022/11/25 06:42:30;;;;;;;18.50;7.28;;;7.60;99.90;;;;;;5092379;28;20541;-79
2022/11/25 06:44:56;;;;;;;13.57;7.20;;;7.60;99.90;;;;;;5095379;28;20044;-79
2022/11/25 06:47:21;;;;;;;22.30;7.68;;;7.60;99.90;;;;;;5095578;28;20055;-77
2022/11/25 06:49:47;;;;;;;23.65;8.23;;;7.60;99.90;;;;;;5095092;28;20044;-78
2022/11/25 06:52:13;;;;;;;19.42;7.20;;;7.60;99.90;;;;;;5095194;28;20040;-77
2022/11/25 06:54:41;;;;;;;19.75;7.95;;;7.60;99.90;;;;;;5094476;28;20101;-79
2022/11/25 06:57:09;;;;;;;19.23;7.07;;;7.60;99.90;;;;;;5095049;28;20418;-78
2022/11/25 06:59:35;;;;;;;22.02;7.40;;;7.60;99.90;;;;;;5095150;28;20048;-78
2022/11/25 07:02:01;;;;;;;14.97;6.60;;;7.60;99.90;;;;;;5094995;28;20040;-81
2022/11/25 07:04:27;;;;;;;16.10;7.78;;;7.60;99.90;;;;;;5077405;28;20289;-82
2022/11/25 07:06:52;;;;;;;18.17;7.35;;;7.60;99.90;;;;;;5095055;28;20426;-81
2022/11/25 07:09:18;;;;;;;20.40;7.32;;;7.60;99.90;;;;;;5094806;28;20087;-82
2022/11/25 07:11:44;;;;;;;19.45;6.40;;;7.60;99.90;;;;;;5094697;28;20036;-80
2022/11/25 07:14:15;;;;;;;16.77;6.87;;;7.60;99.90;;;;;;5093991;28;20047;-82
2022/11/25 07:16:43;;;;;;;17.98;6.60;;;7.60;99.90;;;;;;5095159;28;20278;-82
2022/11/25 07:19:11;;;;;;;19.00;7.38;;;7.60;99.90;;;;;;5094697;28;20047;-77
2022/11/25 07:21:36;;;;;;;15.82;5.82;;;7.60;99.90;;;;;;5094727;28;20044;-78
2022/11/25 07:24:04;;;;;;;20.65;7.10;;;7.90;99.90;;;;;;5095377;28;20056;-78
2022/11/25 07:26:33;;;;;;;16.65;6.90;;;7.60;99.90;;;;;;5095615;28;20070;-78
2022/11/25 07:29:02;;;;;;;17.33;6.53;;;7.70;99.90;;;;;;5095229;28;20127;-78
2022/11/25 07:31:31;;;;;;;15.65;6.40;;;7.70;99.90;;;;;;5095409;28;20122;-78
2022/11/25 07:34:00;;;;;;;16.85;6.25;;;7.70;99.90;;;;;;5095218;28;20126;-79
2022/11/25 07:36:27;;;;;;;17.17;5.63;;;7.70;99.90;;;;;;5093629;28;20086;-77
2022/11/25 07:38:53;;;;;;;18.95;5.90;;;7.70;99.90;;;;;;5093884;28;20051;-78
2022/11/25 07:41:22;;;;;;;14.13;5.40;;;7.70;99.90;;;;;;5094262;28;20044;-79
2022/11/25 07:43:51;;;;;;;11.55;5.68;;;7.70;99.90;;;;;;5094338;28;20047;-78
2022/11/25 07:46:27;;;;;;;14.02;5.55;;;7.70;99.90;;;;;;5094409;28;20048;-77
2022/11/25 07:48:55;;;;;;;19.83;5.53;;;7.70;99.90;;;;;;5094203;28;20079;-81
2022/11/25 07:51:24;;;;;;;14.00;5.13;;;7.80;99.90;;;;;;5093554;28;20036;-78
2022/11/25 07:53:50;;;;;;;11.52;4.45;;;7.70;99.90;;;;;;5094039;28;20040;-78
2022/11/25 07:56:17;;;;;;;12.10;4.93;;;8.20;99.90;;;;;;5094286;28;20040;-79
2022/11/25 07:58:43;;;;;;;15.40;4.68;;;7.70;99.90;;;;;;5094052;28;20086;-78
2022/11/25 08:01:11;;;;;;;14.48;5.13;;;7.70;99.90;;;;;;5094008;28;20437;-79
2022/11/25 08:03:38;;;;;;;14.43;4.90;;;8.00;99.90;;;;;;5094038;28;20109;-77
2022/11/25 08:06:07;;;;;;;15.52;4.95;;;8.40;99.90;;;;;;5094042;28;20118;-79
2022/11/25 08:08:33;;;;;;;12.32;5.13;;;7.70;99.90;;;;;;5094114;28;20079;-78
2022/11/25 08:10:59;;;;;;;12.77;5.03;;;7.60;99.90;;;;;;5094083;28;20149;-79
2022/11/25 08:13:25;;;;;;;11.27;5.20;;;7.60;99.90;;;;;;5093945;28;20122;-77
2022/11/25 08:15:51;;;;;;;12.63;4.83;;;7.60;99.90;;;;;;5092448;28;20044;-76
2022/11/25 08:18:17;;;;;;;14.27;5.25;;;7.60;99.90;;;;;;5093393;28;20357;-76
2022/11/25 08:20:43;;;;;;;17.63;5.05;;;7.60;99.90;;;;;;5093701;28;20503;-76
2022/11/25 08:23:08;;;;;;;17.40;5.40;;;7.60;99.90;;;;;;5092788;28;20044;-79
2022/11/25 08:25:41;;;;;;;14.13;4.70;;;7.60;99.90;;;;;;5092769;28;20086;-75
2022/11/25 08:28:07;;;;;;;17.48;5.50;;;7.60;99.90;;;;;;5094019;28;20040;-78
2022/11/25 08:30:33;;;;;;;13.65;4.95;;;7.90;99.90;;;;;;5093705;28;20090;-80
2022/11/25 08:32:59;;;;;;;14.18;4.82;;;7.90;99.90;;;;;;5093832;28;20040;-76
2022/11/25 08:35:27;;;;;;;11.07;4.72;;;7.60;99.90;;;;;;5092756;28;20043;-79
2022/11/25 08:37:52;;;;;;;13.70;4.95;;;7.60;99.90;;;;;;5090117;28;20059;-78
2022/11/25 08:40:18;;;;;;;12.48;4.93;;;7.60;99.90;;;;;;5091679;28;20473;-78
2022/11/25 08:42:44;;;;;;;12.15;4.53;;;7.70;99.90;;;;;;5092850;28;20048;-79
2022/11/25 08:45:11;;;;;;;17.58;4.88;;;7.70;99.90;;;;;;5093045;28;20044;-79
2022/11/25 08:47:37;;;;;;;19.98;5.30;;;7.70;99.90;;;;;;5092823;28;20074;-80
2022/11/25 08:50:07;;;;;;;12.30;5.43;;;7.80;99.90;;;;;;5092810;28;20032;-79
2022/11/25 08:52:32;;;;;;;10.75;5.20;;;7.80;99.90;;;;;;5092147;28;20055;-79
2022/11/25 08:54:58;;;;;;;16.23;5.85;;;7.80;99.90;;;;;;5093697;28;20388;-78
2022/11/25 08:57:24;;;;;;;16.55;6.32;;;7.90;99.90;;;;;;5093762;28;20036;-79
2022/11/25 08:59:49;;;;;;;15.27;6.68;;;7.90;99.90;;;;;;5093656;28;20537;-79
2022/11/25 09:02:16;;;;;;;17.88;5.53;;;7.90;99.90;;;;;;5093703;28;20043;-79
2022/11/25 09:04:43;;;;;;;10.77;5.78;;;8.00;99.90;;;;;;5093542;28;20059;-79
2022/11/25 09:07:08;;;;;;;18.50;6.25;;;8.00;99.90;;;;;;5093565;28;20477;-78
2022/11/25 09:09:34;;;;;;;14.52;6.15;;;8.00;99.90;;;;;;5093668;28;20089;-79
2022/11/25 09:11:59;;;;;;;17.83;7.07;;;8.00;99.90;;;;;;5093412;28;20043;-78
2022/11/25 09:14:25;;;;;;;14.23;6.65;;;8.10;99.90;;;;;;5093180;28;20404;-80
2022/11/25 09:16:51;;;;;;;15.80;7.30;;;8.10;99.90;;;;;;5093626;28;20044;-79
2022/11/25 09:19:16;;;;;;;12.23;6.13;;;8.30;99.90;;;;;;5093392;28;20361;-79
2022/11/25 09:21:42;;;;;;;16.95;6.80;;;8.10;99.90;;;;;;5093478;28;20087;-78
2022/11/25 09:24:08;;;;;;;16.73;6.80;;;8.20;99.90;;;;;;5094071;28;20093;-78
2022/11/25 09:26:36;;;;;;;14.80;6.40;;;8.20;99.90;;;;;;5091925;28;20513;-79
2022/11/25 09:29:02;;;;;;;19.73;7.32;;;8.30;99.90;;;;;;5093188;28;20056;-78
2022/11/25 09:31:28;;;;;;;17.17;6.70;;;8.30;99.90;;;;;;5093229;28;20032;-79
2022/11/25 09:33:55;;;;;;;15.40;6.57;;;8.30;99.90;;;;;;5093261;28;20044;-80
2022/11/25 09:36:22;;;;;;;16.60;6.82;;;8.40;99.90;;;;;;5075697;28;20084;-79
2022/11/25 09:38:48;;;;;;;22.33;6.88;;;8.40;99.90;;;;;;5092062;28;20083;-80
2022/11/25 09:47:48;;;;;;;15.90;7.53;;;8.50;99.90;;;;;;5093051;28;20477;-79
2022/11/25 09:50:31;;;;;;;18.65;6.65;;;8.50;99.90;;;;;;5093159;28;20399;-80
2022/11/25 09:53:09;;;;;;;13.20;6.95;;;8.60;99.90;;;;;;5097410;28;20040;-79
2022/11/25 09:55:41;;;;;;;14.02;6.88;;;8.60;99.90;;;;;;5097347;28;20495;-80
2022/11/25 09:58:46;;;;;;;10.15;6.28;;;8.70;99.90;;;;;;5096837;28;20506;-79
2022/11/25 10:01:16;;;;;;;10.13;6.03;;;8.70;99.90;;;;;;5065729;28;20508;-79
2022/11/25 10:04:05;;;;;;;14.52;6.10;;;8.70;99.90;;;;;;5096931;28;20575;-79
2022/11/25 10:06:47;;;;;;;13.43;5.82;;;8.80;99.90;;;;;;5096628;28;20044;-79
2022/11/25 10:09:16;;;;;;;14.27;5.60;;;8.80;99.90;;;;;;5096514;28;20136;-80
2022/11/25 10:12:08;;;;;;;11.65;5.70;;;8.90;99.90;;;;;;5096396;28;20043;-80
2022/11/25 10:14:45;;;;;;;13.27;5.88;;;8.90;99.90;;;;;;5096162;28;20055;-79
2022/11/25 10:17:23;;;;;;;13.35;5.40;;;9.00;99.90;;;;;;5096364;28;20127;-80
2022/11/25 10:20:27;;;;;;;14.10;5.60;;;9.00;99.90;;;;;;5096359;28;20043;-80
2022/11/25 10:23:12;;;;;;;12.40;5.25;;;9.10;99.90;;;;;;5034017;28;20041;-80
2022/11/25 10:25:44;;;;;;;11.25;4.60;;;9.10;99.90;;;;;;5092699;28;20052;-79
2022/11/25 10:28:17;;;;;;;11.18;4.70;;;9.10;99.90;;;;;;5096140;28;20530;-79
2022/11/25 10:30:47;;;;;;;11.27;4.93;;;9.20;99.90;;;;;;5095697;28;20563;-79
2022/11/25 10:33:25;;;;;;;10.57;4.82;;;9.30;99.90;;;;;;5095970;28;20040;-80
2022/11/25 10:35:59;;;;;;;;;;;9.30;99.90;;;;;;5096490;28;20054;-79
2022/11/25 10:38:37;;;;;;;10.18;4.43;;;9.30;99.90;;;;;;5096444;28;19920;-78
2022/11/25 10:41:04;;;;;;;9.57;4.60;;;9.40;99.90;;;;;;5095958;28;20051;-80
2022/11/25 10:43:31;;;;;;;11.98;4.90;;;9.40;99.90;;;;;;5095885;28;20097;-79
2022/11/25 10:46:22;;;;;;;12.48;4.80;;;9.40;99.90;;;;;;5094382;28;20430;-80
2022/11/25 10:49:18;;;;;;;6.40;4.00;;;9.50;99.90;;;;;;5095532;28;20165;-80
2022/11/25 10:51:49;;;;;;;10.27;4.25;;;9.50;99.90;;;;;;5095935;28;20062;-80
2022/11/25 10:54:21;;;;;;;12.65;4.78;;;9.60;99.90;;;;;;5095617;28;20459;-80
2022/11/25 10:56:52;;;;;;;10.68;5.30;;;9.60;99.90;;;;;;5095648;28;20167;-80
2022/11/25 10:59:25;;;;;;;8.82;4.40;;;9.70;99.90;;;;;;5095455;28;20054;-79
2022/11/25 11:01:52;;;;;;;9.98;4.72;;;9.70;99.90;;;;;;5095976;28;20430;-80
2022/11/25 11:04:19;;;;;;;9.00;4.07;;;9.70;99.90;;;;;;5095315;28;20048;-80
2022/11/25 11:06:46;;;;;;;;;;;9.70;99.90;;;;;;5094825;28;20127;-80
2022/11/25 11:09:39;;;;;;;9.77;4.20;;;9.80;99.90;;;;;;5095292;28;19931;-79
2022/11/25 11:12:17;;;;;;;14.23;4.05;;;9.80;99.90;;;;;;5095124;28;20055;-80
2022/11/25 11:14:42;;;;;;;12.57;4.40;;;9.80;99.90;;;;;;5095329;28;20047;-80
2022/11/25 11:17:28;;;;;;;9.95;4.53;;;9.90;99.90;;;;;;5095485;28;20040;-79
2022/11/25 11:20:05;;;;;;;9.32;4.22;;;9.90;99.90;;;;;;5095390;28;20553;-79
2022/11/25 11:22:31;;;;;;;;;;;9.90;99.90;;;;;;5094349;28;20050;-79
2022/11/25 11:25:29;;;;;;;9.38;3.70;;;10.00;99.90;;;;;;5095065;28;19920;-79
2022/11/25 11:27:55;;;;;;;9.77;3.63;;;10.00;99.90;;;;;;5083050;28;20055;-79
2022/11/25 11:30:24;;;;;;;8.95;3.70;;;10.00;99.90;;;;;;5095036;28;20035;-79
2022/11/25 11:33:06;;;;;;;8.23;3.92;;;10.10;99.90;;;;;;5094781;28;20137;-80
2022/11/25 11:35:49;;;;;;;6.30;3.63;;;10.10;99.90;;;;;;5094765;28;20050;-80
2022/11/25 11:38:30;;;;;;;9.35;3.20;;;10.60;99.90;;;;;;5094752;28;20044;-80
2022/11/25 11:41:38;;;;;;;12.50;3.67;;;10.20;99.90;;;;;;5093719;28;20392;-79
2022/11/25 11:44:38;;;;;;;10.35;3.72;;;10.20;99.90;;;;;;5095006;28;20048;-79
2022/11/25 11:47:27;;;;;;;10.00;3.13;;;10.30;99.90;;;;;;5094680;28;20127;-79
2022/11/25 11:50:22;;;;;;;8.82;2.95;;;9.80;99.90;;;;;;5095029;28;20120;-79
2022/11/25 11:53:09;;;;;;;6.38;3.00;;;10.40;99.90;;;;;;5094385;28;20549;-80
2022/11/25 11:55:47;;;;;;;8.85;3.50;;;10.40;99.90;;;;;;5094512;28;20079;-81
2022/11/25 11:58:42;;;;;;;6.78;3.38;;;10.40;99.90;;;;;;5094351;28;20137;-80
2022/11/25 12:01:39;;;;;;;7.57;3.28;;;10.50;99.90;;;;;;5094423;28;20040;-80
2022/11/25 12:04:21;;;;;;;7.93;3.55;;;10.50;99.90;;;;;;5094264;28;20048;-80
2022/11/25 12:07:05;;;;;;;10.15;3.67;;;10.60;99.90;;;;;;5094206;28;20051;-80
2022/11/25 12:09:37;;;;;;;8.88;3.25;;;10.60;99.90;;;;;;5093221;28;20052;-80
2022/11/25 12:12:05;;;;;;;8.52;3.25;;;11.80;99.90;;;;;;5094167;28;20043;-80
2022/11/25 12:14:40;;;;;;;15.68;3.50;;;10.90;99.90;;;;;;5093265;28;20128;-80
2022/11/25 12:17:29;;;;;;;7.90;2.72;;;10.90;99.90;;;;;;5094130;28;20047;-80
2022/11/25 12:20:17;;;;;;;8.95;3.25;;;10.90;99.90;;;;;;5094378;28;20043;-80
2022/11/25 12:23:00;;;;;;;6.57;3.00;;;11.00;99.90;;;;;;5093978;28;20056;-80
2022/11/25 12:25:31;;;;;;;13.23;3.45;;;10.80;99.90;;;;;;5093933;28;20059;-80
2022/11/25 12:28:07;;;;;;;13.02;3.00;;;11.60;99.90;;;;;;5093657;28;20496;-80
2022/11/25 12:31:03;;;;;;;13.68;3.10;;;10.70;99.90;;;;;;5093801;28;20050;-80
2022/11/25 12:33:54;;;;;;;9.70;3.00;;;10.90;99.90;;;;;;5093878;28;20117;-80
2022/11/25 12:36:31;;;;;;;10.90;3.03;;;10.70;99.90;;;;;;5065210;28;20064;-80
2022/11/25 12:39:14;;;;;;;10.97;2.73;;;11.50;99.90;;;;;;5093696;28;20084;-84
2022/11/25 12:41:41;;;;;;;11.75;3.55;;;10.50;99.90;;;;;;5098996;28;20340;-81
2022/11/25 12:44:18;;;;;;;11.93;3.40;;;10.00;99.90;;;;;;5093416;28;20044;-78
2022/11/25 12:46:49;;;;;;;9.02;3.33;;;10.70;99.90;;;;;;5101288;28;20082;-77
2022/11/25 12:49:19;;;;;;;10.95;3.20;;;10.60;99.90;;;;;;5093557;28;20126;-77
2022/11/25 12:52:05;;;;;;;7.32;3.20;;;11.50;99.90;;;;;;5093391;28;20044;-79
2022/11/25 12:54:46;;;;;;;9.40;3.30;;;10.80;99.90;;;;;;5093597;28;20098;-82
2022/11/25 12:57:40;;;;;;;9.73;3.05;;;10.90;99.90;;;;;;5093628;28;20665;-78
2022/11/25 13:00:45;;;;;;;12.30;3.22;;;11.00;99.90;;;;;;5093473;28;20048;-78
2022/11/25 13:03:55;;;;;;;10.05;3.22;;;11.00;99.90;;;;;;5093549;28;20048;-79
2022/11/25 13:06:45;;;;;;;9.18;2.83;;;11.10;99.90;;;;;;5091776;28;20126;-80
2022/11/25 13:09:25;;;;;;;11.32;2.80;;;12.00;99.90;;;;;;5093344;28;20044;-80
2022/11/25 13:12:09;;;;;;;9.88;3.28;;;11.20;99.90;;;;;;5092572;28;20047;-80